sensor_id;sensor_type;location;lat;lon;timestamp;temperature;humidity
45735;DHT22;31446;49.632;8.328;2022-11-21T00:00:32;7.60;99.90
45735;DHT22;31446;49.632;8.328;2022-11-21T00:15:38;7.70;99.90
45735;DHT22;31446;49.632;8.328;2022-11-21T00:30:45;7.70;99.90
45735;DHT22;31446;49.632;8.328;2022-11-21T00:45:51;7.70;99.90
45735;DHT22;31446;49.632;8.328;2022-11-21T01:01:06;7.70;99.90
45735;DHT22;31446;49.632;8.328;2022-11-21T01:16:16;7.70;99.90
45735;DHT22;31446;49.632;8.328;2022-11-21T01:31:23;7.10;99.90
45735;DHT22;31446;49.632;8.328;2022-11-21T01:46:30;6.80;99.90
45735;DHT22;31446;49.632;8.328;2022-11-21T02:01:37;6.90;99.90
45735;DHT22;31446;49.632;8.328;2022-11-21T02:16:45;7.10;99.90
45735;DHT22;31446;49.632;8.328;2022-11-21T02:31:51;6.90;99.90
45735;DHT22;31446;49.632;8.328;2022-11-21T02:46:58;6.70;99.90
45735;DHT22;31446;49.632;8.328;2022-11-21T03:02:04;6.60;99.90
45735;DHT22;31446;49.632;8.328;2022-11-21T03:17:11;6.60;99.90
45735;DHT22;31446;49.632;8.328;2022-11-21T03:32:17;6.80;99.90
45735;DHT22;31446;49.632;8.328;2022-11-21T03:47:24;6.70;99.90
45735;DHT22;31446;49.632;8.328;2022-11-21T04:02:30;6.50;99.90
45735;DHT22;31446;49.632;8.328;2022-11-21T04:17:37;6.30;99.90
45735;DHT22;31446;49.632;8.328;2022-11-21T04:32:43;6.00;99.90
45735;DHT22;31446;49.632;8.328;2022-11-21T04:47:51;6.10;99.90
45735;DHT22;31446;49.632;8.328;2022-11-21T05:03:04;6.70;99.90
45735;DHT22;31446;49.632;8.328;2022-11-21T05:18:10;7.00;99.90
45735;DHT22;31446;49.632;8.328;2022-11-21T05:33:17;7.00;99.90
45735;DHT22;31446;49.632;8.328;2022-11-21T05:48:23;7.00;99.90
45735;DHT22;31446;49.632;8.328;2022-11-21T06:03:32;7.00;99.90
45735;DHT22;31446;49.632;8.328;2022-11-21T06:18:41;7.00;99.90
45735;DHT22;31446;49.632;8.328;2022-11-21T06:33:51;7.40;99.90
45735;DHT22;31446;49.632;8.328;2022-11-21T06:48:57;7.10;99.90
45735;DHT22;31446;49.632;8.328;2022-11-21T07:04:04;6.90;99.90
45735;DHT22;31446;49.632;8.328;2022-11-21T07:19:11;6.80;99.90
45735;DHT22;31446;49.632;8.328;2022-11-21T07:34:17;6.50;99.90
45735;DHT22;31446;49.632;8.328;2022-11-21T07:49:24;6.60;99.90
45735;DHT22;31446;49.632;8.328;2022-11-21T08:04:30;7.20;99.90
45735;DHT22;31446;49.632;8.328;2022-11-21T08:19:40;7.20;99.90
45735;DHT22;31446;49.632;8.328;2022-11-21T08:34:46;7.20;99.90
45735;DHT22;31446;49.632;8.328;2022-11-21T08:49:53;7.80;99.90
45735;DHT22;31446;49.632;8.328;2022-11-21T09:04:59;8.50;99.90
45735;DHT22;31446;49.632;8.328;2022-11-21T09:20:07;8.30;99.90
45735;DHT22;31446;49.632;8.328;2022-11-21T09:35:13;8.10;99.90
45735;DHT22;31446;49.632;8.328;2022-11-21T09:50:26;9.70;99.90
45735;DHT22;31446;49.632;8.328;2022-11-21T10:05:38;9.70;99.90
45735;DHT22;31446;49.632;8.328;2022-11-21T10:20:54;10.10;99.90
45735;DHT22;31446;49.632;8.328;2022-11-21T10:36:07;9.60;99.90
45735;DHT22;31446;49.632;8.328;2022-11-21T10:51:27;10.50;99.90
45735;DHT22;31446;49.632;8.328;2022-11-21T11:06:39;9.50;99.90
45735;DHT22;31446;49.632;8.328;2022-11-21T11:21:46;10.50;99.90
45735;DHT22;31446;49.632;8.328;2022-11-21T11:37:01;10.20;99.90
45735;DHT22;31446;49.632;8.328;2022-11-21T11:52:12;10.50;99.90
45735;DHT22;31446;49.632;8.328;2022-11-21T12:07:21;11.40;99.90
45735;DHT22;31446;49.632;8.328;2022-11-21T12:22:31;12.30;99.90
45735;DHT22;31446;49.632;8.328;2022-11-21T12:37:47;11.70;99.90
45735;DHT22;31446;49.632;8.328;2022-11-21T12:53:03;11.30;99.90
45735;DHT22;31446;49.632;8.328;2022-11-21T13:08:30;11.20;99.90
45735;DHT22;31446;49.632;8.328;2022-11-21T13:23:40;11.70;99.90
45735;DHT22;31446;49.632;8.328;2022-11-21T14:09:55;11.60;99.90
45735;DHT22;31446;49.632;8.328;2022-11-21T14:25:06;11.30;99.90
45735;DHT22;31446;49.632;8.328;2022-11-21T14:40:20;10.40;99.90
45735;DHT22;31446;49.632;8.328;2022-11-21T14:55:28;9.70;99.90
45735;DHT22;31446;49.632;8.328;2022-11-21T15:10:35;9.40;99.90
45735;DHT22;31446;49.632;8.328;2022-11-21T15:25:46;9.10;99.90
45735;DHT22;31446;49.632;8.328;2022-11-21T15:41:25;8.70;99.90
45735;DHT22;31446;49.632;8.328;2022-11-21T15:56:33;8.50;99.90
45735;DHT22;31446;49.632;8.328;2022-11-21T16:11:39;8.40;99.90
45735;DHT22;31446;49.632;8.328;2022-11-21T16:26:46;8.00;99.90
45735;DHT22;31446;49.632;8.328;2022-11-21T16:41:56;7.90;99.90
45735;DHT22;31446;49.632;8.328;2022-11-21T16:57:03;7.40;99.90
45735;DHT22;31446;49.632;8.328;2022-11-21T17:12:09;7.20;99.90
45735;DHT22;31446;49.632;8.328;2022-11-21T17:27:16;7.10;99.90
45735;DHT22;31446;49.632;8.328;2022-11-21T17:42:22;7.00;99.90
45735;DHT22;31446;49.632;8.328;2022-11-21T17:57:30;7.10;99.90
45735;DHT22;31446;49.632;8.328;2022-11-21T18:12:36;6.90;99.90
45735;DHT22;31446;49.632;8.328;2022-11-21T18:27:42;6.80;99.90
45735;DHT22;31446;49.632;8.328;2022-11-21T18:42:49;7.20;99.90
45735;DHT22;31446;49.632;8.328;2022-11-21T18:57:56;7.00;99.90
45735;DHT22;31446;49.632;8.328;2022-11-21T19:13:02;7.10;99.90
45735;DHT22;31446;49.632;8.328;2022-11-21T19:28:08;7.50;99.90
45735;DHT22;31446;49.632;8.328;2022-11-21T19:43:14;7.40;99.90
45735;DHT22;31446;49.632;8.328;2022-11-21T19:58:21;7.30;99.90
45735;DHT22;31446;49.632;8.328;2022-11-21T20:13:29;7.50;99.90
45735;DHT22;31446;49.632;8.328;2022-11-21T20:28:36;7.60;99.90
45735;DHT22;31446;49.632;8.328;2022-11-21T20:43:42;7.30;99.90
45735;DHT22;31446;49.632;8.328;2022-11-21T20:58:49;7.10;99.90
45735;DHT22;31446;49.632;8.328;2022-11-21T21:13:55;7.10;99.90
45735;DHT22;31446;49.632;8.328;2022-11-21T21:29:02;7.10;99.90
45735;DHT22;31446;49.632;8.328;2022-11-21T21:44:08;7.00;99.90
45735;DHT22;31446;49.632;8.328;2022-11-21T21:59:14;7.30;99.90
45735;DHT22;31446;49.632;8.328;2022-11-21T22:14:21;7.20;99.90
45735;DHT22;31446;49.632;8.328;2022-11-21T22:29:28;7.20;99.90
45735;DHT22;31446;49.632;8.328;2022-11-21T22:44:34;7.20;99.90
45735;DHT22;31446;49.632;8.328;2022-11-21T22:59:40;7.40;99.90
45735;DHT22;31446;49.632;8.328;2022-11-21T23:14:46;7.40;99.90
45735;DHT22;31446;49.632;8.328;2022-11-21T23:29:53;7.60;99.90
45735;DHT22;31446;49.632;8.328;2022-11-21T23:44:59;7.80;99.90
